sensor_id;sensor_type;location;lat;lon;timestamp;pressure;altitude;pressure_sealevel;temperature;humidity
59829;BME280;45708;51.848;107.620;2023-02-19T00:00:24;95745.59;;;-11.59;71.13
59829;BME280;45708;51.848;107.620;2023-02-19T00:05:25;95742.91;;;-11.56;70.76
59829;BME280;45708;51.848;107.620;2023-02-19T00:10:25;95744.00;;;-11.62;71.58
59829;BME280;45708;51.848;107.620;2023-02-19T00:15:26;95769.28;;;-11.57;70.98
59829;BME280;45708;51.848;107.620;2023-02-19T00:20:27;95772.16;;;-11.46;70.83
59829;BME280;45708;51.848;107.620;2023-02-19T00:25:28;95780.03;;;-11.32;68.85
59829;BME280;45708;51.848;107.620;2023-02-19T00:30:29;95780.81;;;-11.13;68.94
59829;BME280;45708;51.848;107.620;2023-02-19T00:35:33;95782.34;;;-11.09;67.42
59829;BME280;45708;51.848;107.620;2023-02-19T00:40:34;95776.66;;;-10.96;67.88
59829;BME280;45708;51.848;107.620;2023-02-19T00:45:35;95784.19;;;-10.76;67.09
59829;BME280;45708;51.848;107.620;2023-02-19T00:50:35;95793.16;;;-10.33;66.68
59829;BME280;45708;51.848;107.620;2023-02-19T00:55:36;95794.84;;;-10.16;65.18
59829;BME280;45708;51.848;107.620;2023-02-19T01:00:37;95801.56;;;-9.80;63.50
59829;BME280;45708;51.848;107.620;2023-02-19T01:05:37;95806.28;;;-9.73;62.70
59829;BME280;45708;51.848;107.620;2023-02-19T01:10:38;95817.31;;;-9.24;63.30
59829;BME280;45708;51.848;107.620;2023-02-19T01:15:39;95815.63;;;-8.62;62.66
59829;BME280;45708;51.848;107.620;2023-02-19T01:20:42;95815.09;;;-6.66;59.45
59829;BME280;45708;51.848;107.620;2023-02-19T01:25:43;95813.19;;;-7.46;60.09
59829;BME280;45708;51.848;107.620;2023-02-19T01:30:44;95816.59;;;-8.48;60.98
59829;BME280;45708;51.848;107.620;2023-02-19T01:35:44;95840.94;;;-8.55;62.15
59829;BME280;45708;51.848;107.620;2023-02-19T01:40:56;95840.56;;;-8.19;61.46
59829;BME280;45708;51.848;107.620;2023-02-19T01:45:58;95851.81;;;-8.36;61.31
59829;BME280;45708;51.848;107.620;2023-02-19T01:51:06;95857.47;;;-8.77;60.79
59829;BME280;45708;51.848;107.620;2023-02-19T01:56:09;95867.31;;;-9.34;61.96
59829;BME280;45708;51.848;107.620;2023-02-19T02:01:12;95870.34;;;-9.43;60.69
59829;BME280;45708;51.848;107.620;2023-02-19T02:06:36;95864.06;;;-9.53;58.71
59829;BME280;45708;51.848;107.620;2023-02-19T02:11:43;95867.84;;;-9.60;58.13
59829;BME280;45708;51.848;107.620;2023-02-19T02:22:15;95884.47;;;-9.86;58.77
59829;BME280;45708;51.848;107.620;2023-02-19T02:37:43;95906.34;;;-10.32;59.10
59829;BME280;45708;51.848;107.620;2023-02-19T02:42:45;95919.13;;;-10.15;58.68
59829;BME280;45708;51.848;107.620;2023-02-19T02:47:53;95928.69;;;-9.84;58.14
59829;BME280;45708;51.848;107.620;2023-02-19T02:52:59;95933.03;;;-10.03;57.29
59829;BME280;45708;51.848;107.620;2023-02-19T02:58:03;95944.06;;;-10.03;58.45
59829;BME280;45708;51.848;107.620;2023-02-19T03:03:05;95943.34;;;-9.70;57.97
59829;BME280;45708;51.848;107.620;2023-02-19T03:08:13;95944.16;;;-9.53;57.28
59829;BME280;45708;51.848;107.620;2023-02-19T03:13:30;95958.34;;;-9.12;56.09
59829;BME280;45708;51.848;107.620;2023-02-19T03:18:36;95960.84;;;-8.95;55.06
59829;BME280;45708;51.848;107.620;2023-02-19T03:23:39;95969.91;;;-9.05;55.67
59829;BME280;45708;51.848;107.620;2023-02-19T03:28:42;95973.19;;;-9.03;54.95
59829;BME280;45708;51.848;107.620;2023-02-19T03:33:47;95973.84;;;-9.15;54.15
59829;BME280;45708;51.848;107.620;2023-02-19T03:39:03;95968.25;;;-9.06;54.46
59829;BME280;45708;51.848;107.620;2023-02-19T03:45:01;95961.00;;;-8.98;54.23
59829;BME280;45708;51.848;107.620;2023-02-19T03:50:00;95958.38;;;-8.81;53.47
59829;BME280;45708;51.848;107.620;2023-02-19T03:55:42;95963.41;;;-8.95;52.55
59829;BME280;45708;51.848;107.620;2023-02-19T04:00:54;95964.50;;;-8.83;52.92
59829;BME280;45708;51.848;107.620;2023-02-19T04:06:02;95973.06;;;-9.00;52.77
59829;BME280;45708;51.848;107.620;2023-02-19T04:11:05;95940.00;;;-9.05;52.43
59829;BME280;45708;51.848;107.620;2023-02-19T04:16:10;95987.94;;;-8.91;52.29
59829;BME280;45708;51.848;107.620;2023-02-19T04:21:12;95985.81;;;-8.83;53.03
59829;BME280;45708;51.848;107.620;2023-02-19T04:26:14;95987.91;;;-8.74;52.17
59829;BME280;45708;51.848;107.620;2023-02-19T04:31:16;95985.50;;;-8.61;52.17
59829;BME280;45708;51.848;107.620;2023-02-19T04:36:17;95987.84;;;-8.56;52.41
59829;BME280;45708;51.848;107.620;2023-02-19T04:41:18;95989.56;;;-8.41;51.72
59829;BME280;45708;51.848;107.620;2023-02-19T04:46:18;95986.50;;;-8.48;50.96
59829;BME280;45708;51.848;107.620;2023-02-19T04:51:19;95989.16;;;-8.49;51.72
59829;BME280;45708;51.848;107.620;2023-02-19T04:56:20;95986.88;;;-8.38;51.63
59829;BME280;45708;51.848;107.620;2023-02-19T05:01:21;95986.50;;;-8.32;51.20
59829;BME280;45708;51.848;107.620;2023-02-19T05:06:22;95992.94;;;-8.25;50.82
59829;BME280;45708;51.848;107.620;2023-02-19T05:11:23;95994.75;;;-8.27;50.46
59829;BME280;45708;51.848;107.620;2023-02-19T05:16:23;95964.13;;;-8.44;50.47
59829;BME280;45708;51.848;107.620;2023-02-19T05:21:24;95995.50;;;-8.25;49.93
59829;BME280;45708;51.848;107.620;2023-02-19T05:26:25;95985.03;;;-8.20;49.58
59829;BME280;45708;51.848;107.620;2023-02-19T05:31:26;96002.34;;;-8.25;49.90
59829;BME280;45708;51.848;107.620;2023-02-19T05:36:27;96003.53;;;-8.15;49.78
59829;BME280;45708;51.848;107.620;2023-02-19T05:41:29;95995.75;;;-8.14;49.88
59829;BME280;45708;51.848;107.620;2023-02-19T05:46:30;95997.72;;;-7.87;50.23
59829;BME280;45708;51.848;107.620;2023-02-19T05:51:31;96002.72;;;-7.70;49.69
59829;BME280;45708;51.848;107.620;2023-02-19T05:56:37;96011.59;;;-7.60;48.80
59829;BME280;45708;51.848;107.620;2023-02-19T06:01:38;96008.59;;;-7.68;49.83
59829;BME280;45708;51.848;107.620;2023-02-19T06:06:40;96013.91;;;-7.87;49.14
59829;BME280;45708;51.848;107.620;2023-02-19T06:11:41;96022.34;;;-7.85;49.17
59829;BME280;45708;51.848;107.620;2023-02-19T06:16:42;96030.31;;;-7.89;48.93
59829;BME280;45708;51.848;107.620;2023-02-19T06:21:42;96030.31;;;-7.89;48.67
59829;BME280;45708;51.848;107.620;2023-02-19T06:26:43;96034.19;;;-7.82;48.70
59829;BME280;45708;51.848;107.620;2023-02-19T06:31:45;96022.13;;;-7.80;48.26
59829;BME280;45708;51.848;107.620;2023-02-19T06:36:48;96032.09;;;-7.60;48.36
59829;BME280;45708;51.848;107.620;2023-02-19T06:41:48;95960.84;;;-8.01;48.03
59829;BME280;45708;51.848;107.620;2023-02-19T06:46:50;96023.41;;;-7.57;47.29
59829;BME280;45708;51.848;107.620;2023-02-19T06:51:51;96034.22;;;-7.52;47.01
59829;BME280;45708;51.848;107.620;2023-02-19T06:56:52;96038.72;;;-7.56;47.93
59829;BME280;45708;51.848;107.620;2023-02-19T07:01:53;96045.75;;;-7.59;46.65
59829;BME280;45708;51.848;107.620;2023-02-19T07:06:54;96034.59;;;-7.58;47.61
59829;BME280;45708;51.848;107.620;2023-02-19T07:11:54;96054.75;;;-7.52;47.05
59829;BME280;45708;51.848;107.620;2023-02-19T07:16:55;96062.66;;;-7.41;47.62
59829;BME280;45708;51.848;107.620;2023-02-19T07:21:56;96064.41;;;-7.42;46.75
59829;BME280;45708;51.848;107.620;2023-02-19T07:26:57;96073.16;;;-7.60;45.37
59829;BME280;45708;51.848;107.620;2023-02-19T07:31:58;96069.50;;;-7.72;46.51
59829;BME280;45708;51.848;107.620;2023-02-19T07:36:59;96079.69;;;-7.70;46.76
59829;BME280;45708;51.848;107.620;2023-02-19T07:42:00;96070.00;;;-7.65;47.14
59829;BME280;45708;51.848;107.620;2023-02-19T07:47:01;96074.22;;;-7.64;46.36
59829;BME280;45708;51.848;107.620;2023-02-19T07:52:02;96074.47;;;-7.69;47.32
59829;BME280;45708;51.848;107.620;2023-02-19T07:57:02;96076.69;;;-7.62;46.04
59829;BME280;45708;51.848;107.620;2023-02-19T08:02:03;96082.91;;;-7.82;45.99
59829;BME280;45708;51.848;107.620;2023-02-19T08:07:04;96078.47;;;-7.79;46.57
59829;BME280;45708;51.848;107.620;2023-02-19T08:12:05;96088.72;;;-7.79;46.78
59829;BME280;45708;51.848;107.620;2023-02-19T08:17:06;96090.38;;;-7.93;46.43
59829;BME280;45708;51.848;107.620;2023-02-19T08:22:07;96084.22;;;-8.07;46.26
59829;BME280;45708;51.848;107.620;2023-02-19T08:27:08;96091.44;;;-7.98;46.68
59829;BME280;45708;51.848;107.620;2023-02-19T08:32:08;96090.59;;;-8.14;45.67
59829;BME280;45708;51.848;107.620;2023-02-19T08:37:09;96103.56;;;-8.33;45.78
59829;BME280;45708;51.848;107.620;2023-02-19T08:42:10;96100.81;;;-8.45;46.11
59829;BME280;45708;51.848;107.620;2023-02-19T08:47:11;96093.63;;;-8.54;45.87
59829;BME280;45708;51.848;107.620;2023-02-19T08:52:12;96100.84;;;-8.63;46.55
59829;BME280;45708;51.848;107.620;2023-02-19T08:57:12;96101.31;;;-8.72;46.08
59829;BME280;45708;51.848;107.620;2023-02-19T09:02:13;96108.41;;;-8.77;46.64
59829;BME280;45708;51.848;107.620;2023-02-19T09:07:14;96115.94;;;-8.91;47.12
59829;BME280;45708;51.848;107.620;2023-02-19T09:12:15;96123.31;;;-9.02;47.42
59829;BME280;45708;51.848;107.620;2023-02-19T09:17:16;96121.81;;;-9.06;47.39
59829;BME280;45708;51.848;107.620;2023-02-19T09:22:17;96127.00;;;-9.25;46.21
59829;BME280;45708;51.848;107.620;2023-02-19T09:27:19;96129.31;;;-9.38;47.44
59829;BME280;45708;51.848;107.620;2023-02-19T09:32:20;96134.19;;;-9.51;47.80
59829;BME280;45708;51.848;107.620;2023-02-19T09:37:24;96135.72;;;-9.65;47.90
59829;BME280;45708;51.848;107.620;2023-02-19T09:42:30;96135.59;;;-9.81;47.99
59829;BME280;45708;51.848;107.620;2023-02-19T09:47:32;96143.75;;;-9.92;47.38
59829;BME280;45708;51.848;107.620;2023-02-19T09:52:57;96145.06;;;-10.02;48.53
59829;BME280;45708;51.848;107.620;2023-02-19T09:58:35;96156.53;;;-10.29;49.29
59829;BME280;45708;51.848;107.620;2023-02-19T10:03:44;96150.97;;;-10.58;48.25
59829;BME280;45708;51.848;107.620;2023-02-19T10:08:47;96149.38;;;-10.81;48.71
59829;BME280;45708;51.848;107.620;2023-02-19T10:13:52;96156.31;;;-11.05;49.60
59829;BME280;45708;51.848;107.620;2023-02-19T10:18:55;96170.69;;;-11.24;49.03
59829;BME280;45708;51.848;107.620;2023-02-19T10:23:59;96156.38;;;-11.48;49.65
59829;BME280;45708;51.848;107.620;2023-02-19T10:29:02;96164.50;;;-11.60;49.87
59829;BME280;45708;51.848;107.620;2023-02-19T10:34:03;96170.66;;;-11.66;50.80
59829;BME280;45708;51.848;107.620;2023-02-19T10:39:29;96168.69;;;-11.81;50.84
59829;BME280;45708;51.848;107.620;2023-02-19T10:44:41;96178.84;;;-12.03;51.08
59829;BME280;45708;51.848;107.620;2023-02-19T10:49:44;96182.97;;;-12.22;51.22
59829;BME280;45708;51.848;107.620;2023-02-19T10:55:13;96185.91;;;-12.33;51.36
59829;BME280;45708;51.848;107.620;2023-02-19T11:05:17;96189.88;;;-12.49;51.64
59829;BME280;45708;51.848;107.620;2023-02-19T11:10:27;96196.13;;;-12.58;51.81
59829;BME280;45708;51.848;107.620;2023-02-19T11:15:36;96202.53;;;-12.73;51.86
59829;BME280;45708;51.848;107.620;2023-02-19T11:26:04;96224.34;;;-13.17;52.68
59829;BME280;45708;51.848;107.620;2023-02-19T11:31:16;96231.66;;;-13.33;52.64
59829;BME280;45708;51.848;107.620;2023-02-19T11:36:31;96235.75;;;-13.57;53.66
59829;BME280;45708;51.848;107.620;2023-02-19T11:53:05;96255.22;;;-14.15;53.15
59829;BME280;45708;51.848;107.620;2023-02-19T11:58:22;96257.19;;;-14.26;53.98
59829;BME280;45708;51.848;107.620;2023-02-19T12:04:01;96264.34;;;-14.40;55.95
59829;BME280;45708;51.848;107.620;2023-02-19T12:14:57;96269.00;;;-14.25;55.56
59829;BME280;45708;51.848;107.620;2023-02-19T12:30:48;96281.31;;;-14.42;56.73
59829;BME280;45708;51.848;107.620;2023-02-19T12:41:18;96268.47;;;-14.36;56.34
59829;BME280;45708;51.848;107.620;2023-02-19T12:46:41;96276.69;;;-14.57;56.52
59829;BME280;45708;51.848;107.620;2023-02-19T12:51:50;96263.25;;;-14.62;58.02
59829;BME280;45708;51.848;107.620;2023-02-19T13:02:43;96268.91;;;-14.22;59.78
59829;BME280;45708;51.848;107.620;2023-02-19T13:12:50;96268.00;;;-14.18;58.72
59829;BME280;45708;51.848;107.620;2023-02-19T13:17:55;96278.63;;;-14.36;59.58
59829;BME280;45708;51.848;107.620;2023-02-19T13:34:02;96288.72;;;-14.99;58.52
59829;BME280;45708;51.848;107.620;2023-02-19T13:38:45;96290.72;;;-15.14;58.90
59829;BME280;45708;51.848;107.620;2023-02-19T13:43:54;96290.91;;;-15.23;58.78
59829;BME280;45708;51.848;107.620;2023-02-19T13:54:32;96283.97;;;-15.52;58.75
59829;BME280;45708;51.848;107.620;2023-02-19T13:59:37;96287.59;;;-15.62;59.43
59829;BME280;45708;51.848;107.620;2023-02-19T14:09:45;96298.75;;;-15.71;59.24
59829;BME280;45708;51.848;107.620;2023-02-19T14:14:50;96316.00;;;-15.88;58.76
59829;BME280;45708;51.848;107.620;2023-02-19T14:24:59;96325.97;;;-16.25;58.97
59829;BME280;45708;51.848;107.620;2023-02-19T14:30:08;96322.09;;;-16.44;59.67
59829;BME280;45708;51.848;107.620;2023-02-19T14:35:21;96310.75;;;-16.68;59.62
59829;BME280;45708;51.848;107.620;2023-02-19T14:40:31;96290.97;;;-16.93;59.71
59829;BME280;45708;51.848;107.620;2023-02-19T14:45:40;96303.72;;;-17.00;60.21
59829;BME280;45708;51.848;107.620;2023-02-19T14:50:46;96305.69;;;-17.17;60.68
59829;BME280;45708;51.848;107.620;2023-02-19T14:55:50;96297.41;;;-17.29;60.67
59829;BME280;45708;51.848;107.620;2023-02-19T15:00:52;96302.38;;;-17.23;60.21
59829;BME280;45708;51.848;107.620;2023-02-19T15:05:55;96292.47;;;-17.35;60.65
59829;BME280;45708;51.848;107.620;2023-02-19T15:10:57;96288.28;;;-17.36;60.73
59829;BME280;45708;51.848;107.620;2023-02-19T15:15:58;96273.94;;;-17.34;62.79
59829;BME280;45708;51.848;107.620;2023-02-19T15:21:01;96281.47;;;-17.31;66.89
59829;BME280;45708;51.848;107.620;2023-02-19T15:26:03;96275.59;;;-17.33;65.32
59829;BME280;45708;51.848;107.620;2023-02-19T15:31:05;96278.97;;;-17.34;64.11
59829;BME280;45708;51.848;107.620;2023-02-19T15:36:12;96279.94;;;-17.42;63.10
59829;BME280;45708;51.848;107.620;2023-02-19T15:41:19;96281.81;;;-17.54;62.98
59829;BME280;45708;51.848;107.620;2023-02-19T15:46:23;96287.72;;;-17.55;62.38
59829;BME280;45708;51.848;107.620;2023-02-19T15:51:33;96298.66;;;-17.56;62.40
59829;BME280;45708;51.848;107.620;2023-02-19T15:56:42;96307.72;;;-17.44;62.02
59829;BME280;45708;51.848;107.620;2023-02-19T16:01:44;96297.63;;;-17.41;61.91
59829;BME280;45708;51.848;107.620;2023-02-19T16:11:53;96302.72;;;-17.47;63.13
59829;BME280;45708;51.848;107.620;2023-02-19T16:16:58;96306.16;;;-17.51;62.16
59829;BME280;45708;51.848;107.620;2023-02-19T16:22:00;96309.44;;;-17.46;62.44
59829;BME280;45708;51.848;107.620;2023-02-19T16:27:01;96311.13;;;-17.45;62.11
59829;BME280;45708;51.848;107.620;2023-02-19T16:32:15;96330.56;;;-17.51;62.61
59829;BME280;45708;51.848;107.620;2023-02-19T16:37:38;96329.84;;;-17.60;62.98
59829;BME280;45708;51.848;107.620;2023-02-19T16:47:48;96342.22;;;-18.06;62.83
59829;BME280;45708;51.848;107.620;2023-02-19T16:53:22;96331.31;;;-18.09;63.71
59829;BME280;45708;51.848;107.620;2023-02-19T16:58:23;96316.91;;;-17.97;62.59
59829;BME280;45708;51.848;107.620;2023-02-19T17:03:24;96316.94;;;-18.00;63.46
59829;BME280;45708;51.848;107.620;2023-02-19T17:08:32;96307.91;;;-18.19;63.70
59829;BME280;45708;51.848;107.620;2023-02-19T17:13:35;96307.88;;;-18.16;63.51
59829;BME280;45708;51.848;107.620;2023-02-19T17:18:36;96316.34;;;-18.23;63.57
59829;BME280;45708;51.848;107.620;2023-02-19T17:23:37;96318.19;;;-18.36;63.53
59829;BME280;45708;51.848;107.620;2023-02-19T17:28:38;96331.56;;;-18.31;64.19
59829;BME280;45708;51.848;107.620;2023-02-19T17:33:39;96330.00;;;-18.41;63.87
59829;BME280;45708;51.848;107.620;2023-02-19T17:38:41;96325.81;;;-18.40;63.29
59829;BME280;45708;51.848;107.620;2023-02-19T17:43:41;96319.78;;;-18.30;63.59
59829;BME280;45708;51.848;107.620;2023-02-19T17:48:43;96319.69;;;-18.20;64.32
59829;BME280;45708;51.848;107.620;2023-02-19T17:53:43;96319.81;;;-18.32;64.36
59829;BME280;45708;51.848;107.620;2023-02-19T17:58:45;96315.72;;;-18.43;64.12
59829;BME280;45708;51.848;107.620;2023-02-19T18:03:46;96313.31;;;-18.53;63.92
59829;BME280;45708;51.848;107.620;2023-02-19T18:08:49;96319.97;;;-18.49;64.51
59829;BME280;45708;51.848;107.620;2023-02-19T18:13:51;96313.28;;;-18.51;63.62
59829;BME280;45708;51.848;107.620;2023-02-19T18:18:51;96313.31;;;-18.54;63.99
59829;BME280;45708;51.848;107.620;2023-02-19T18:23:52;96317.59;;;-18.61;63.86
59829;BME280;45708;51.848;107.620;2023-02-19T18:28:53;96306.03;;;-18.77;64.63
59829;BME280;45708;51.848;107.620;2023-02-19T18:33:54;96311.81;;;-18.67;63.69
59829;BME280;45708;51.848;107.620;2023-02-19T18:38:55;96306.75;;;-18.67;64.45
59829;BME280;45708;51.848;107.620;2023-02-19T18:43:55;96315.22;;;-18.73;64.68
59829;BME280;45708;51.848;107.620;2023-02-19T18:48:57;96319.47;;;-18.78;63.77
59829;BME280;45708;51.848;107.620;2023-02-19T18:53:58;96311.09;;;-18.80;63.68
59829;BME280;45708;51.848;107.620;2023-02-19T18:58:58;96301.16;;;-18.97;63.88
59829;BME280;45708;51.848;107.620;2023-02-19T19:03:59;96314.66;;;-19.05;64.59
59829;BME280;45708;51.848;107.620;2023-02-19T19:09:01;96296.28;;;-19.17;64.43
59829;BME280;45708;51.848;107.620;2023-02-19T19:14:02;96291.31;;;-19.26;64.02
59829;BME280;45708;51.848;107.620;2023-02-19T19:19:04;96290.53;;;-19.31;64.67
59829;BME280;45708;51.848;107.620;2023-02-19T19:24:05;96286.34;;;-19.32;64.10
59829;BME280;45708;51.848;107.620;2023-02-19T19:29:07;96294.78;;;-19.42;64.12
59829;BME280;45708;51.848;107.620;2023-02-19T19:34:08;96294.94;;;-19.54;64.70
59829;BME280;45708;51.848;107.620;2023-02-19T19:39:09;96295.84;;;-19.67;64.17
59829;BME280;45708;51.848;107.620;2023-02-19T19:44:11;96295.91;;;-19.83;64.47
59829;BME280;45708;51.848;107.620;2023-02-19T19:49:16;96293.59;;;-20.15;64.37
59829;BME280;45708;51.848;107.620;2023-02-19T19:54:17;96308.00;;;-20.58;64.30
59829;BME280;45708;51.848;107.620;2023-02-19T19:59:18;96301.38;;;-20.88;64.45
59829;BME280;45708;51.848;107.620;2023-02-19T20:04:22;96283.81;;;-21.08;64.59
59829;BME280;45708;51.848;107.620;2023-02-19T20:09:23;96281.34;;;-21.28;64.85
59829;BME280;45708;51.848;107.620;2023-02-19T20:14:24;96289.72;;;-21.19;64.83
59829;BME280;45708;51.848;107.620;2023-02-19T20:19:25;96292.22;;;-21.24;64.56
59829;BME280;45708;51.848;107.620;2023-02-19T20:24:26;96289.72;;;-21.32;64.30
59829;BME280;45708;51.848;107.620;2023-02-19T20:29:30;96292.22;;;-21.21;64.74
59829;BME280;45708;51.848;107.620;2023-02-19T20:34:31;96298.06;;;-21.20;64.85
59829;BME280;45708;51.848;107.620;2023-02-19T20:39:33;96293.91;;;-21.29;65.11
59829;BME280;45708;51.848;107.620;2023-02-19T20:44:34;96288.06;;;-21.40;64.75
59829;BME280;45708;51.848;107.620;2023-02-19T20:49:35;96282.19;;;-21.73;66.37
59829;BME280;45708;51.848;107.620;2023-02-19T20:54:36;96277.97;;;-21.83;67.10
59829;BME280;45708;51.848;107.620;2023-02-19T20:59:37;96287.13;;;-22.03;67.75
59829;BME280;45708;51.848;107.620;2023-02-19T21:04:37;96287.94;;;-22.33;67.87
59829;BME280;45708;51.848;107.620;2023-02-19T21:09:38;96282.03;;;-22.46;67.54
59829;BME280;45708;51.848;107.620;2023-02-19T21:14:39;96287.84;;;-22.50;70.86
59829;BME280;45708;51.848;107.620;2023-02-19T21:19:40;96293.78;;;-22.33;70.14
59829;BME280;45708;51.848;107.620;2023-02-19T21:24:41;96295.44;;;-22.39;68.38
59829;BME280;45708;51.848;107.620;2023-02-19T21:29:41;96299.53;;;-22.51;67.12
59829;BME280;45708;51.848;107.620;2023-02-19T21:34:42;96310.25;;;-22.81;67.76
59829;BME280;45708;51.848;107.620;2023-02-19T21:39:43;96306.78;;;-23.02;67.79
59829;BME280;45708;51.848;107.620;2023-02-19T21:44:44;96310.13;;;-23.05;68.47
59829;BME280;45708;51.848;107.620;2023-02-19T21:49:45;96313.56;;;-22.91;68.59
59829;BME280;45708;51.848;107.620;2023-02-19T21:54:45;96312.72;;;-22.87;68.46
59829;BME280;45708;51.848;107.620;2023-02-19T21:59:46;96321.91;;;-22.89;70.92
59829;BME280;45708;51.848;107.620;2023-02-19T22:04:51;96314.44;;;-22.79;70.04
59829;BME280;45708;51.848;107.620;2023-02-19T22:09:52;96306.94;;;-22.73;70.71
59829;BME280;45708;51.848;107.620;2023-02-19T22:14:53;96313.72;;;-22.57;69.77
59829;BME280;45708;51.848;107.620;2023-02-19T22:19:54;96325.31;;;-22.68;70.71
59829;BME280;45708;51.848;107.620;2023-02-19T22:24:55;96313.63;;;-22.72;70.89
59829;BME280;45708;51.848;107.620;2023-02-19T22:29:56;96303.56;;;-22.83;71.74
59829;BME280;45708;51.848;107.620;2023-02-19T22:34:56;96315.25;;;-22.84;72.27
59829;BME280;45708;51.848;107.620;2023-02-19T22:39:58;96307.78;;;-22.76;71.92
59829;BME280;45708;51.848;107.620;2023-02-19T22:44:59;96302.72;;;-22.84;72.09
59829;BME280;45708;51.848;107.620;2023-02-19T22:50:00;96295.81;;;-23.24;71.79
59829;BME280;45708;51.848;107.620;2023-02-19T22:55:01;96304.88;;;-23.41;71.43
59829;BME280;45708;51.848;107.620;2023-02-19T23:00:04;96299.63;;;-23.75;70.61
59829;BME280;45708;51.848;107.620;2023-02-19T23:05:05;96318.47;;;-24.03;70.47
59829;BME280;45708;51.848;107.620;2023-02-19T23:10:06;96328.84;;;-24.48;69.25
59829;BME280;45708;51.848;107.620;2023-02-19T23:15:08;96338.00;;;-25.12;68.67
59829;BME280;45708;51.848;107.620;2023-02-19T23:20:09;96339.16;;;-25.45;69.11
59829;BME280;45708;51.848;107.620;2023-02-19T23:25:10;96338.25;;;-25.50;70.44
59829;BME280;45708;51.848;107.620;2023-02-19T23:30:12;96342.34;;;-25.55;70.64
59829;BME280;45708;51.848;107.620;2023-02-19T23:35:12;96335.72;;;-25.53;71.50
59829;BME280;45708;51.848;107.620;2023-02-19T23:40:13;96335.34;;;-25.23;72.78
59829;BME280;45708;51.848;107.620;2023-02-19T23:45:15;96334.66;;;-25.14;72.30
59829;BME280;45708;51.848;107.620;2023-02-19T23:50:16;96343.75;;;-25.18;72.16
59829;BME280;45708;51.848;107.620;2023-02-19T23:55:17;96338.97;;;-25.03;72.10
